createdAt,value
2022-09-24T00:01:25.298Z,10.17
2022-09-24T00:04:00.841Z,10.18
2022-09-24T00:06:29.928Z,10.16
2022-09-24T00:08:57.885Z,10.07
2022-09-24T00:11:27.027Z,10.10
2022-09-24T00:13:55.650Z,10.01
2022-09-24T00:16:25.822Z,10.06
2022-09-24T00:18:54.053Z,10.04
2022-09-24T00:21:24.203Z,10.06
2022-09-24T00:23:56.069Z,9.97
2022-09-24T00:26:41.947Z,10.02
2022-09-24T00:29:10.292Z,9.92
2022-09-24T00:31:37.167Z,9.92
2022-09-24T00:34:04.146Z,10.00
2022-09-24T00:36:30.896Z,9.90
2022-09-24T00:38:59.536Z,9.99
2022-09-24T00:41:31.873Z,10.03
2022-09-24T00:43:59.454Z,9.96
2022-09-24T00:46:32.720Z,10.00
2022-09-24T00:49:20.143Z,10.00
2022-09-24T00:51:52.995Z,9.93
2022-09-24T00:54:24.195Z,9.93
2022-09-24T00:56:52.608Z,9.84
2022-09-24T00:59:23.993Z,9.79
2022-09-24T01:01:57.646Z,9.76
2022-09-24T01:04:27.115Z,9.73
2022-09-24T01:06:55.429Z,9.71
2022-09-24T01:09:24.344Z,9.76
2022-09-24T01:12:00.043Z,9.78
2022-09-24T01:14:58.073Z,9.78
2022-09-24T01:17:33.263Z,9.73
2022-09-24T01:20:08.927Z,9.69
2022-09-24T01:22:59.983Z,9.82
2022-09-24T01:25:47.036Z,9.85
2022-09-24T01:28:52.463Z,9.87
2022-09-24T01:31:34.371Z,9.80
2022-09-24T01:34:05.981Z,9.78
2022-09-24T01:36:36.071Z,9.70
2022-09-24T01:39:06.718Z,9.74
2022-09-24T01:41:34.288Z,9.78
2022-09-24T01:44:05.520Z,9.77
2022-09-24T01:46:32.420Z,9.83
2022-09-24T01:48:59.829Z,9.77
2022-09-24T01:51:44.479Z,9.70
2022-09-24T01:54:19.893Z,9.72
2022-09-24T01:57:00.701Z,9.71
2022-09-24T01:59:36.908Z,9.63
2022-09-24T02:02:27.792Z,9.63
2022-09-24T02:05:03.531Z,9.60
2022-09-24T02:07:35.972Z,9.57
2022-09-24T02:10:02.697Z,9.49
2022-09-24T02:12:34.679Z,9.49
2022-09-24T02:15:10.044Z,9.48
2022-09-24T02:17:40.233Z,9.49
2022-09-24T02:20:13.306Z,9.42
2022-09-24T02:22:41.904Z,9.45
2022-09-24T02:25:14.518Z,9.48
2022-09-24T02:27:41.928Z,9.53
2022-09-24T02:30:11.083Z,9.53
2022-09-24T02:32:41.532Z,9.56
2022-09-24T02:35:10.779Z,9.50
2022-09-24T02:37:40.081Z,9.42
2022-09-24T02:40:10.031Z,9.45
2022-09-24T02:42:37.911Z,9.48
2022-09-24T02:45:05.580Z,9.43
2022-09-24T02:47:32.695Z,9.46
2022-09-24T02:50:00.332Z,9.50
2022-09-24T02:52:28.079Z,9.50
2022-09-24T02:54:54.704Z,9.43
2022-09-24T02:57:21.408Z,9.42
2022-09-24T02:59:48.112Z,9.39
2022-09-24T03:02:15.395Z,9.34
2022-09-24T03:04:42.712Z,9.34
2022-09-24T03:07:10.287Z,9.28
2022-09-24T03:09:37.150Z,9.22
2022-09-24T03:12:05.128Z,9.30
2022-09-24T03:14:31.955Z,9.32
2022-09-24T03:16:58.693Z,9.29
2022-09-24T03:19:25.354Z,9.37
2022-09-24T03:21:51.996Z,9.36
2022-09-24T03:24:18.616Z,9.39
2022-09-24T03:26:45.364Z,9.30
2022-09-24T03:29:11.988Z,9.39
2022-09-24T03:31:38.658Z,9.31
2022-09-24T03:34:05.445Z,9.27
2022-09-24T03:36:32.395Z,9.15
2022-09-24T03:38:59.165Z,9.10
2022-09-24T03:41:34.036Z,9.04
2022-09-24T03:44:01.032Z,9.03
2022-09-24T03:46:30.499Z,9.09
2022-09-24T03:48:59.371Z,9.11
2022-09-24T03:51:26.129Z,9.06
2022-09-24T03:53:52.893Z,9.12
2022-09-24T03:56:19.600Z,9.18
2022-09-24T03:58:48.291Z,9.17
2022-09-24T04:01:20.778Z,9.32
2022-09-24T04:03:48.646Z,9.36
2022-09-24T04:06:15.616Z,9.35
2022-09-24T04:08:42.320Z,9.41
2022-09-24T04:11:09.051Z,9.38
2022-09-24T04:13:35.723Z,9.42
2022-09-24T04:16:03.856Z,9.38
2022-09-24T04:18:30.600Z,9.42
2022-09-24T04:21:00.830Z,9.40
2022-09-24T04:23:28.485Z,9.42
2022-09-24T04:25:55.141Z,9.40
2022-09-24T04:28:21.813Z,9.23
2022-09-24T04:30:48.529Z,9.40
2022-09-24T04:33:15.528Z,9.41
2022-09-24T04:35:42.188Z,9.45
2022-09-24T04:38:08.860Z,9.46
2022-09-24T04:40:35.634Z,9.48
2022-09-24T04:43:02.793Z,9.61
2022-09-24T04:45:30.046Z,9.69
2022-09-24T04:47:58.000Z,9.69
2022-09-24T04:50:28.154Z,9.75
2022-09-24T04:52:56.094Z,9.75
2022-09-24T04:55:23.450Z,9.85
2022-09-24T04:57:51.238Z,9.80
2022-09-24T05:00:21.025Z,9.72
2022-09-24T05:02:55.187Z,9.70
2022-09-24T05:05:21.973Z,9.62
2022-09-24T05:07:49.672Z,9.63
2022-09-24T05:10:16.384Z,9.61
2022-09-24T05:12:43.061Z,9.62
2022-09-24T05:15:10.060Z,9.60
2022-09-24T05:17:40.093Z,9.42
2022-09-24T05:20:08.041Z,9.27
2022-09-24T05:22:36.635Z,9.26
2022-09-24T05:25:03.633Z,9.17
2022-09-24T05:27:30.305Z,9.26
2022-09-24T05:29:56.982Z,9.26
2022-09-24T05:32:23.948Z,9.31
2022-09-24T05:34:51.111Z,9.32
2022-09-24T05:37:18.473Z,9.36
2022-09-24T05:39:45.239Z,9.38
2022-09-24T05:42:15.781Z,9.49
2022-09-24T05:44:51.349Z,9.45
2022-09-24T05:47:18.852Z,9.47
2022-09-24T05:49:45.497Z,9.62
2022-09-24T05:52:12.166Z,9.64
2022-09-24T05:54:38.843Z,9.76
2022-09-24T05:57:05.616Z,9.77
2022-09-24T05:59:32.419Z,9.79
2022-09-24T06:01:59.265Z,9.82
2022-09-24T06:04:26.531Z,9.90
2022-09-24T06:06:53.643Z,9.96
2022-09-24T06:09:20.297Z,9.97
2022-09-24T06:11:49.266Z,9.97
2022-09-24T06:14:15.947Z,9.93
2022-09-24T06:16:42.638Z,9.91
2022-09-24T06:19:09.390Z,10.03
2022-09-24T06:21:36.070Z,10.11
2022-09-24T06:24:03.189Z,10.16
2022-09-24T06:26:29.844Z,10.28
2022-09-24T06:29:00.771Z,10.38
2022-09-24T06:31:30.662Z,10.41
2022-09-24T06:34:00.565Z,10.48
2022-09-24T06:36:27.228Z,10.53
2022-09-24T06:38:53.932Z,10.53
2022-09-24T06:41:20.855Z,10.65
2022-09-24T06:43:47.572Z,10.73
2022-09-24T06:46:15.806Z,10.79
2022-09-24T06:48:42.985Z,10.88
2022-09-24T06:51:09.756Z,11.09
2022-09-24T06:53:36.422Z,11.18
2022-09-24T06:56:03.761Z,11.40
2022-09-24T06:58:31.041Z,11.68
2022-09-24T07:01:00.455Z,11.75
2022-09-24T07:03:29.379Z,11.82
2022-09-24T07:05:59.469Z,11.79
2022-09-24T07:08:26.218Z,11.88
2022-09-24T07:10:53.147Z,11.91
2022-09-24T07:13:21.436Z,11.97
2022-09-24T07:15:50.317Z,12.07
2022-09-24T07:18:18.376Z,12.11
2022-09-24T07:20:51.002Z,12.17
2022-09-24T07:23:18.656Z,12.19
2022-09-24T07:25:45.580Z,12.18
2022-09-24T07:28:13.855Z,12.23
2022-09-24T07:30:40.704Z,12.35
2022-09-24T07:33:07.960Z,12.46
2022-09-24T07:35:37.886Z,12.56
2022-09-24T07:38:07.416Z,12.74
2022-09-24T07:40:34.772Z,12.90
2022-09-24T07:43:01.850Z,13.09
2022-09-24T07:45:29.872Z,13.11
2022-09-24T07:48:02.118Z,13.21
2022-09-24T07:50:30.034Z,13.22
2022-09-24T07:52:57.131Z,13.21
2022-09-24T07:55:25.939Z,13.17
2022-09-24T07:57:54.559Z,13.07
2022-09-24T08:00:22.747Z,12.98
2022-09-24T08:02:50.220Z,12.98
2022-09-24T08:05:18.172Z,12.92
2022-09-24T08:07:55.354Z,12.88
2022-09-24T08:10:23.308Z,12.84
2022-09-24T08:12:50.537Z,12.77
2022-09-24T08:15:17.545Z,12.83
2022-09-24T08:17:44.630Z,12.82
2022-09-24T08:20:12.401Z,12.84
2022-09-24T08:22:39.122Z,12.82
2022-09-24T08:25:06.244Z,12.84
2022-09-24T08:27:33.066Z,12.86
2022-09-24T08:30:00.808Z,12.81
2022-09-24T08:32:29.011Z,12.82
2022-09-24T08:34:55.674Z,12.74
2022-09-24T08:37:22.982Z,12.69
2022-09-24T08:39:49.659Z,12.65
2022-09-24T08:42:36.085Z,12.70
2022-09-24T08:45:23.735Z,12.68
2022-09-24T08:47:55.152Z,12.77
2022-09-24T08:50:31.282Z,12.84
2022-09-24T08:53:17.165Z,12.90
2022-09-24T08:55:48.507Z,12.99
2022-09-24T08:58:33.639Z,13.05
2022-09-24T09:01:12.907Z,13.07
2022-09-24T09:03:39.618Z,13.05
2022-09-24T09:06:37.287Z,13.09
2022-09-24T09:09:12.959Z,13.14
2022-09-24T09:11:41.099Z,13.20
2022-09-24T09:14:10.893Z,13.25
2022-09-24T09:16:47.118Z,13.27
2022-09-24T09:19:16.306Z,13.28
2022-09-24T09:21:57.499Z,13.27
2022-09-24T09:24:39.917Z,13.23
2022-09-24T09:27:12.657Z,13.27
2022-09-24T09:29:39.393Z,13.23
2022-09-24T09:32:41.137Z,13.29
2022-09-24T09:35:29.193Z,13.27
2022-09-24T09:38:05.418Z,13.30
2022-09-24T09:40:46.145Z,13.30
2022-09-24T09:43:14.319Z,13.31
2022-09-24T09:46:14.565Z,13.41
2022-09-24T09:48:52.318Z,13.49
2022-09-24T09:51:22.554Z,13.48
2022-09-24T09:54:01.066Z,13.47
2022-09-24T09:56:30.916Z,13.41
2022-09-24T09:59:18.048Z,13.28
2022-09-24T10:01:48.831Z,13.38
2022-09-24T10:04:24.918Z,13.39
2022-09-24T10:06:51.605Z,13.31
2022-09-24T10:09:22.582Z,13.31
2022-09-24T10:11:49.366Z,13.22
2022-09-24T10:14:19.067Z,13.30
2022-09-24T10:16:51.879Z,13.34
2022-09-24T10:19:27.845Z,13.41
2022-09-24T10:21:57.557Z,13.41
2022-09-24T10:24:26.680Z,13.47
2022-09-24T10:26:54.562Z,13.45
2022-09-24T10:30:00.116Z,13.63
2022-09-24T10:32:29.749Z,13.70
2022-09-24T10:34:58.501Z,13.77
2022-09-24T10:37:26.067Z,13.82
2022-09-24T10:40:12.706Z,13.81
2022-09-24T10:42:39.609Z,13.75
2022-09-24T10:45:13.832Z,13.90
2022-09-24T10:48:01.700Z,13.93
2022-09-24T10:50:36.975Z,13.92
2022-09-24T10:53:08.868Z,13.97
2022-09-24T10:55:55.477Z,13.95
2022-09-24T10:58:40.673Z,14.07
2022-09-24T11:01:16.774Z,14.04
2022-09-24T11:04:20.492Z,14.10
2022-09-24T11:06:57.699Z,14.09
2022-09-24T11:09:38.877Z,14.11
2022-09-24T11:12:15.900Z,14.30
2022-09-24T11:14:59.837Z,14.39
2022-09-24T11:17:52.829Z,14.46
2022-09-24T11:20:22.405Z,14.55
2022-09-24T11:22:54.485Z,14.40
2022-09-24T11:25:38.349Z,14.50
2022-09-24T11:28:42.262Z,14.42
2022-09-24T11:31:26.646Z,14.57
2022-09-24T11:34:23.528Z,14.46
2022-09-24T11:37:06.124Z,14.30
2022-09-24T11:39:39.066Z,14.17
2022-09-24T11:42:29.702Z,14.07
2022-09-24T11:44:59.390Z,13.98
2022-09-24T11:47:40.200Z,13.89
2022-09-24T11:50:18.796Z,13.90
2022-09-24T11:52:53.357Z,13.89
2022-09-24T11:55:32.660Z,13.89
2022-09-24T11:58:11.512Z,13.95
2022-09-24T12:00:46.557Z,13.90
2022-09-24T12:03:31.397Z,13.92
2022-09-24T12:06:06.491Z,13.91
2022-09-24T12:08:43.081Z,13.88
2022-09-24T12:11:22.270Z,13.81
2022-09-24T12:14:02.711Z,13.63
2022-09-24T12:16:36.502Z,13.66
2022-09-24T12:19:14.108Z,13.80
2022-09-24T12:21:45.479Z,13.87
2022-09-24T12:24:34.754Z,14.02
2022-09-24T12:27:09.633Z,14.03
2022-09-24T12:30:19.020Z,14.01
2022-09-24T12:33:07.265Z,13.94
2022-09-24T12:35:55.894Z,13.93
2022-09-24T12:38:32.600Z,13.90
2022-09-24T12:41:11.497Z,13.91
2022-09-24T12:43:47.625Z,13.88
2022-09-24T12:46:25.530Z,13.91
2022-09-24T12:48:54.564Z,13.95
2022-09-24T12:51:22.785Z,14.06
2022-09-24T12:54:05.835Z,14.13
2022-09-24T12:56:32.982Z,14.16
2022-09-24T12:58:59.831Z,13.99
2022-09-24T13:01:28.048Z,14.21
2022-09-24T13:04:14.404Z,14.29
2022-09-24T13:06:43.907Z,14.36
2022-09-24T13:09:26.097Z,14.43
2022-09-24T13:12:23.222Z,14.38
2022-09-24T13:14:58.550Z,14.40
2022-09-24T13:17:25.448Z,14.35
2022-09-24T13:19:58.660Z,14.27
2022-09-24T13:22:34.982Z,14.16
2022-09-24T13:25:07.724Z,14.13
2022-09-24T13:27:43.016Z,14.16
2022-09-24T13:30:09.905Z,14.17
2022-09-24T13:32:49.275Z,14.20
2022-09-24T13:35:22.533Z,14.16
2022-09-24T13:38:06.786Z,14.08
2022-09-24T13:40:39.625Z,14.01
2022-09-24T13:43:25.881Z,13.97
2022-09-24T13:45:53.328Z,13.90
2022-09-24T13:48:36.156Z,13.88
2022-09-24T13:51:06.416Z,13.85
2022-09-24T13:54:04.552Z,13.77
2022-09-24T13:56:31.733Z,13.72
2022-09-24T13:59:24.891Z,13.61
2022-09-24T14:01:51.731Z,13.57
2022-09-24T14:04:21.492Z,13.51
2022-09-24T14:06:51.556Z,13.46
2022-09-24T14:09:34.260Z,13.45
2022-09-24T14:12:22.131Z,13.52
2022-09-24T14:14:58.374Z,13.61
2022-09-24T14:17:25.573Z,13.69
2022-09-24T14:19:57.308Z,13.71
2022-09-24T14:22:31.414Z,13.74
2022-09-24T14:25:07.597Z,13.75
2022-09-24T14:27:41.750Z,13.75
2022-09-24T14:30:19.306Z,13.72
2022-09-24T14:32:52.736Z,13.69
2022-09-24T14:35:31.649Z,13.72
2022-09-24T14:38:09.638Z,13.66
2022-09-24T14:40:45.739Z,13.57
2022-09-24T14:43:24.698Z,13.54
2022-09-24T14:45:52.409Z,13.57
2022-09-24T14:48:22.299Z,13.57
2022-09-24T14:50:49.041Z,13.56
2022-09-24T14:53:36.573Z,13.45
2022-09-24T14:56:28.265Z,13.38
2022-09-24T14:58:54.964Z,13.30
2022-09-24T15:01:29.264Z,13.30
2022-09-24T15:04:16.742Z,13.32
2022-09-24T15:06:48.092Z,13.30
2022-09-24T15:09:30.060Z,13.20
2022-09-24T15:12:17.680Z,13.16
2022-09-24T15:15:00.870Z,13.07
2022-09-24T15:17:33.617Z,13.02
2022-09-24T15:20:01.335Z,12.99
2022-09-24T15:22:29.708Z,12.96
2022-09-24T15:25:01.509Z,12.94
2022-09-24T15:27:34.384Z,12.87
2022-09-24T15:30:04.809Z,12.82
2022-09-24T15:32:35.126Z,12.86
2022-09-24T15:35:07.496Z,12.85
2022-09-24T15:37:34.468Z,12.82
2022-09-24T15:40:15.956Z,12.80
2022-09-24T15:42:42.720Z,12.78
2022-09-24T15:45:18.770Z,12.75
2022-09-24T15:47:45.537Z,12.70
2022-09-24T15:50:12.844Z,12.67
2022-09-24T15:52:53.234Z,12.64
2022-09-24T15:55:21.799Z,12.67
2022-09-24T15:57:48.471Z,12.66
2022-09-24T16:00:18.581Z,12.68
2022-09-24T16:02:52.882Z,12.67
2022-09-24T16:05:20.523Z,12.63
2022-09-24T16:07:47.433Z,12.64
2022-09-24T16:10:15.090Z,12.67
2022-09-24T16:12:42.855Z,12.67
2022-09-24T16:15:14.776Z,12.70
2022-09-24T16:17:41.538Z,12.77
2022-09-24T16:20:10.079Z,12.81
2022-09-24T16:22:36.796Z,12.80
2022-09-24T16:25:04.024Z,12.80
2022-09-24T16:27:31.487Z,12.78
2022-09-24T16:29:58.265Z,12.78
2022-09-24T16:32:25.136Z,12.73
2022-09-24T16:34:52.031Z,12.66
2022-09-24T16:37:18.845Z,12.62
2022-09-24T16:39:46.048Z,12.58
2022-09-24T16:42:12.727Z,12.55
2022-09-24T16:44:39.479Z,12.52
2022-09-24T16:47:06.251Z,12.54
2022-09-24T16:49:33.075Z,12.56
2022-09-24T16:52:00.208Z,12.58
2022-09-24T16:54:31.284Z,12.59
2022-09-24T16:56:58.007Z,12.58
2022-09-24T16:59:24.881Z,12.58
2022-09-24T17:01:51.626Z,12.57
2022-09-24T17:04:18.391Z,12.55
2022-09-24T17:06:45.890Z,12.54
2022-09-24T17:09:31.515Z,12.54
2022-09-24T17:11:58.172Z,12.52
2022-09-24T17:14:24.826Z,12.51
2022-09-24T17:16:51.612Z,12.49
2022-09-24T17:19:18.312Z,12.48
2022-09-24T17:21:50.282Z,12.46
2022-09-24T17:24:21.636Z,12.45
2022-09-24T17:26:49.447Z,12.40
2022-09-24T17:29:18.842Z,12.34
2022-09-24T17:31:45.549Z,12.39
2022-09-24T17:34:15.116Z,12.38
2022-09-24T17:36:42.121Z,12.42
2022-09-24T17:39:11.655Z,12.42
2022-09-24T17:41:38.381Z,12.40
2022-09-24T17:44:05.196Z,12.42
2022-09-24T17:46:32.553Z,12.42
2022-09-24T17:49:00.420Z,12.41
2022-09-24T17:51:33.327Z,12.42
2022-09-24T17:54:02.533Z,12.40
2022-09-24T17:56:32.397Z,12.37
2022-09-24T17:58:59.917Z,12.34
2022-09-24T18:01:36.007Z,12.30
2022-09-24T18:04:04.349Z,12.32
2022-09-24T18:06:33.048Z,12.25
2022-09-24T18:09:01.567Z,12.17
2022-09-24T18:11:31.532Z,12.21
2022-09-24T18:14:00.365Z,12.19
2022-09-24T18:16:29.887Z,12.19
2022-09-24T18:18:58.184Z,12.13
2022-09-24T18:21:26.376Z,12.14
2022-09-24T18:23:54.314Z,12.15
2022-09-24T18:26:39.939Z,12.18
2022-09-24T18:29:15.738Z,12.18
2022-09-24T18:31:43.397Z,12.18
2022-09-24T18:34:14.087Z,12.17
2022-09-24T18:36:42.353Z,12.18
2022-09-24T18:39:13.240Z,12.16
2022-09-24T18:41:41.679Z,12.06
2022-09-24T18:44:09.165Z,12.01
2022-09-24T18:46:36.154Z,11.95
2022-09-24T18:49:03.350Z,11.88
2022-09-24T18:51:32.917Z,11.84
2022-09-24T18:54:06.112Z,11.86
2022-09-24T18:56:33.175Z,11.85
2022-09-24T18:59:09.435Z,11.82
2022-09-24T19:01:38.180Z,11.80
2022-09-24T19:04:06.046Z,11.80
2022-09-24T19:06:35.014Z,11.79
2022-09-24T19:09:02.368Z,11.80
2022-09-24T19:11:31.565Z,11.81
2022-09-24T19:13:58.628Z,11.82
2022-09-24T19:16:25.620Z,11.89
2022-09-24T19:18:53.908Z,11.99
2022-09-24T19:21:23.201Z,12.05
2022-09-24T19:23:55.334Z,12.06
2022-09-24T19:26:24.033Z,12.08
2022-09-24T19:28:51.800Z,12.01
2022-09-24T19:31:30.061Z,12.03
2022-09-24T19:33:58.656Z,12.01
2022-09-24T19:36:25.428Z,11.99
2022-09-24T19:38:53.237Z,12.01
2022-09-24T19:41:25.158Z,12.02
2022-09-24T19:43:53.480Z,11.98
2022-09-24T19:46:24.215Z,12.00
2022-09-24T19:48:52.271Z,12.01
2022-09-24T19:51:27.126Z,11.95
2022-09-24T19:54:02.242Z,11.93
2022-09-24T19:56:30.068Z,11.97
2022-09-24T19:58:58.584Z,11.96
2022-09-24T20:01:28.448Z,11.95
2022-09-24T20:03:57.044Z,11.96
2022-09-24T20:06:27.102Z,11.97
2022-09-24T20:08:53.881Z,11.95
2022-09-24T20:11:22.516Z,11.94
2022-09-24T20:13:50.690Z,11.92
2022-09-24T20:16:19.601Z,11.94
2022-09-24T20:18:50.832Z,11.92
2022-09-24T20:21:19.160Z,11.92
2022-09-24T20:23:48.676Z,11.94
2022-09-24T20:26:35.715Z,11.92
2022-09-24T20:29:03.287Z,11.90
2022-09-24T20:31:30.326Z,11.88
2022-09-24T20:33:57.499Z,11.89
2022-09-24T20:36:25.499Z,11.88
2022-09-24T20:38:53.171Z,11.96
2022-09-24T20:41:24.414Z,11.98
2022-09-24T20:43:55.255Z,11.99
2022-09-24T20:46:28.622Z,12.01
2022-09-24T20:48:59.237Z,12.02
2022-09-24T20:51:28.475Z,11.98
2022-09-24T20:53:55.767Z,12.00
2022-09-24T20:56:22.951Z,12.00
2022-09-24T20:58:51.966Z,12.00
2022-09-24T21:01:20.615Z,11.99
2022-09-24T21:03:50.429Z,11.98
2022-09-24T21:06:19.739Z,12.02
2022-09-24T21:08:47.396Z,11.97
2022-09-24T21:11:18.515Z,11.95
2022-09-24T21:13:51.576Z,11.95
2022-09-24T21:16:21.455Z,11.94
2022-09-24T21:18:49.816Z,11.94
2022-09-24T21:21:16.675Z,11.93
2022-09-24T21:23:45.834Z,11.94
2022-09-24T21:26:25.948Z,11.87
2022-09-24T21:28:55.813Z,11.85
2022-09-24T21:31:26.036Z,11.89
2022-09-24T21:33:53.728Z,11.91
2022-09-24T21:36:24.275Z,11.93
2022-09-24T21:39:15.042Z,11.91
2022-09-24T21:41:42.440Z,11.91
2022-09-24T21:44:14.602Z,11.89
2022-09-24T21:46:43.120Z,11.88
2022-09-24T21:49:11.407Z,11.88
2022-09-24T21:51:39.619Z,11.88
2022-09-24T21:54:08.848Z,11.93
2022-09-24T21:56:36.435Z,11.95
2022-09-24T21:59:23.565Z,11.95
2022-09-24T22:01:50.341Z,11.96
2022-09-24T22:04:17.844Z,11.95
2022-09-24T22:06:45.496Z,11.94
2022-09-24T22:09:13.314Z,11.92
2022-09-24T22:11:40.269Z,11.84
2022-09-24T22:14:09.123Z,11.86
2022-09-24T22:16:36.430Z,11.83
2022-09-24T22:19:05.414Z,11.82
2022-09-24T22:21:33.457Z,11.79
2022-09-24T22:24:02.902Z,11.80
2022-09-24T22:26:30.135Z,11.79
2022-09-24T22:28:58.094Z,11.81
2022-09-24T22:31:26.014Z,11.76
2022-09-24T22:34:11.432Z,11.76
2022-09-24T22:36:39.146Z,11.76
2022-09-24T22:39:07.193Z,11.76
2022-09-24T22:41:36.822Z,11.68
2022-09-24T22:44:03.589Z,11.66
2022-09-24T22:46:32.265Z,11.65
2022-09-24T22:48:59.432Z,11.63
2022-09-24T22:51:27.197Z,11.60
2022-09-24T22:53:55.059Z,11.56
2022-09-24T22:56:24.457Z,11.52
2022-09-24T22:59:00.978Z,11.41
2022-09-24T23:01:31.870Z,11.36
2022-09-24T23:03:59.741Z,11.27
2022-09-24T23:06:26.996Z,11.17
2022-09-24T23:08:55.646Z,11.18
2022-09-24T23:11:25.171Z,11.13
2022-09-24T23:13:55.255Z,11.06
2022-09-24T23:16:34.654Z,11.02
2022-09-24T23:19:04.847Z,11.03
2022-09-24T23:21:33.161Z,10.96
2022-09-24T23:24:06.191Z,10.91
2022-09-24T23:26:33.303Z,10.85
2022-09-24T23:29:01.175Z,10.81
2022-09-24T23:31:31.916Z,10.82
2022-09-24T23:33:59.645Z,10.82
2022-09-24T23:36:28.186Z,10.84
2022-09-24T23:38:54.891Z,10.85
2022-09-24T23:41:21.902Z,10.82
2022-09-24T23:43:49.254Z,10.79
2022-09-24T23:46:17.003Z,10.74
2022-09-24T23:48:44.581Z,10.74
2022-09-24T23:51:11.544Z,10.76
2022-09-24T23:53:38.725Z,10.75
2022-09-24T23:56:07.156Z,10.68
2022-09-24T23:58:34.287Z,10.66
